Search for airport 
image banner adimage banner adimage banner ad
image banner ad

KOYM - St Marys Muni

Located in St Marys, United States

ICAO - OYM, IATA -

Data provided by Airmate  

General information

Coordinates: N41°24'45" W78°30'9"
Elevation is 1934 feet MSL.
Magnetic variation is -11° East
View others Airports in Pennsylvania

Operational data

Special qualification required
Current time UTC:
Current local time:
Weather
METAR: KOYM 182257Z AUTO 31003KT 10SM CLR 24/06 A3032 RMK AO2
View NOTAMs / SUP AIP / TFR affecting this airport [VIEW]
Communications frequencies: [VIEW]

Runways:

RWY identifierQFULength (ft)Width (ft)SurfaceLDA (ft)
1090°430075ASPH
28270°430075ASPH

Airport contact information

Address: St Marys United States

Satellite view of KOYM